Time;durP1;ratioP1;P1;durP2;ratioP2;P2;SDS_P1;SDS_P2;PMS_P1;PMS_P2;Temp;Humidity;BMP_temperature;BMP_pressure;BME280_temperature;BME280_humidity;BME280_pressure;Samples;Min_cycle;Max_cycle;Signal;HPM_P1;HPM_P2
2023/12/20 00:01:27;;;;;;;543.92;255.35;;;0.50;99.90;;;;;;5074735;28;20049;-53
2023/12/20 00:03:53;;;;;;;568.83;263.42;;;0.40;99.90;;;;;;5074915;28;20052;-53
2023/12/20 00:06:19;;;;;;;536.00;252.55;;;0.30;99.90;;;;;;5074888;28;20041;-53
2023/12/20 00:08:45;;;;;;;509.48;237.13;;;0.30;99.90;;;;;;5075062;28;20040;-53
2023/12/20 00:11:11;;;;;;;515.42;237.95;;;0.30;99.90;;;;;;5074902;28;20273;-53
2023/12/20 00:13:37;;;;;;;501.05;233.52;;;0.30;99.90;;;;;;5074804;28;20266;-53
2023/12/20 00:16:03;;;;;;;532.00;255.20;;;0.40;99.90;;;;;;5075089;28;20036;-53
2023/12/20 00:18:29;;;;;;;478.45;221.95;;;0.40;99.90;;;;;;5074834;28;20020;-53
2023/12/20 00:20:55;;;;;;;422.65;199.50;;;0.30;99.90;;;;;;5074998;28;20121;-53
2023/12/20 00:23:23;;;;;;;406.13;192.38;;;0.20;99.90;;;;;;5074898;28;20504;-53
2023/12/20 00:25:49;;;;;;;518.78;247.77;;;0.10;99.90;;;;;;5074645;28;20037;-53
2023/12/20 00:28:14;;;;;;;481.08;222.98;;;0.10;99.90;;;;;;5074961;28;20025;-53
2023/12/20 00:30:40;;;;;;;424.00;193.88;;;0.10;99.90;;;;;;5074946;28;20083;-53
2023/12/20 00:33:06;;;;;;;472.50;220.07;;;0.20;99.90;;;;;;5074836;28;20078;-53
2023/12/20 00:35:32;;;;;;;446.00;205.45;;;0.10;99.90;;;;;;5074815;28;20060;-53
2023/12/20 00:37:59;;;;;;;400.98;187.38;;;0.10;99.90;;;;;;5074598;28;20498;-53
2023/12/20 00:40:25;;;;;;;371.75;169.57;;;0.00;99.90;;;;;;5074589;28;20020;-53
2023/12/20 00:42:50;;;;;;;381.05;179.57;;;0.00;99.90;;;;;;5074848;28;20033;-53
2023/12/20 00:45:16;;;;;;;396.92;187.30;;;-0.10;99.90;;;;;;5074988;28;20131;-53
2023/12/20 00:47:42;;;;;;;403.73;190.00;;;-0.10;99.90;;;;;;5074570;28;20036;-53
2023/12/20 00:50:09;;;;;;;432.10;195.93;;;-0.10;99.90;;;;;;5074634;28;20047;-53
2023/12/20 00:52:35;;;;;;;440.23;205.13;;;-0.20;99.90;;;;;;5077547;28;20024;-53
2023/12/20 00:55:00;;;;;;;446.75;209.30;;;-0.30;99.90;;;;;;5077840;28;20024;-53
2023/12/20 00:57:26;;;;;;;443.77;203.30;;;-0.40;99.90;;;;;;5078057;28;20037;-53
2023/12/20 00:59:52;;;;;;;453.23;204.35;;;-0.30;99.90;;;;;;5078282;28;20035;-53
2023/12/20 01:02:19;;;;;;;435.48;206.88;;;-0.20;99.90;;;;;;5077929;28;20120;-53
2023/12/20 01:04:45;;;;;;;458.23;212.88;;;-0.30;99.90;;;;;;5078089;28;20032;-53
2023/12/20 01:07:10;;;;;;;419.10;196.02;;;-0.40;99.90;;;;;;5077892;28;20052;-53
2023/12/20 01:09:36;;;;;;;415.77;190.55;;;-0.40;99.90;;;;;;5078216;28;20450;-53
2023/12/20 01:12:02;;;;;;;400.95;183.48;;;-0.50;99.90;;;;;;5078056;28;20116;-53
2023/12/20 01:14:28;;;;;;;462.70;208.38;;;-0.40;99.90;;;;;;5077878;28;20541;-53
2023/12/20 01:16:54;;;;;;;463.38;212.43;;;-0.50;99.90;;;;;;5077665;28;20021;-53
2023/12/20 01:19:20;;;;;;;459.08;213.18;;;-0.40;99.90;;;;;;5077929;28;20163;-53
2023/12/20 01:21:45;;;;;;;474.02;214.73;;;-0.40;99.90;;;;;;5077785;28;20105;-53
2023/12/20 01:24:11;;;;;;;444.25;200.43;;;-0.30;99.90;;;;;;5077417;28;20037;-53
2023/12/20 01:26:37;;;;;;;466.52;208.75;;;-0.30;99.90;;;;;;5077634;28;20541;-53
2023/12/20 01:29:03;;;;;;;454.75;207.70;;;-0.30;99.90;;;;;;5077679;28;20028;-53
2023/12/20 01:31:29;;;;;;;415.85;191.10;;;-0.30;99.90;;;;;;5077536;28;20084;-53
2023/12/20 01:33:54;;;;;;;410.77;180.52;;;-0.30;99.90;;;;;;5077516;28;20516;-53
2023/12/20 01:36:20;;;;;;;401.40;182.02;;;-0.40;99.90;;;;;;5077231;28;20029;-53
2023/12/20 01:38:46;;;;;;;361.70;164.32;;;-0.50;99.90;;;;;;5077352;28;20079;-53
2023/12/20 01:41:12;;;;;;;379.70;173.25;;;-0.50;99.90;;;;;;5077218;28;20033;-53
2023/12/20 01:43:38;;;;;;;338.95;159.65;;;-0.40;99.90;;;;;;5077441;28;20028;-53
2023/12/20 01:46:04;;;;;;;353.80;162.98;;;-0.50;99.90;;;;;;5077305;28;20065;-53
2023/12/20 01:48:34;;;;;;;349.38;159.52;;;-0.50;99.90;;;;;;5077152;28;20040;-53
2023/12/20 01:51:01;;;;;;;364.90;167.32;;;-0.50;99.90;;;;;;5077208;28;20038;-53
2023/12/20 01:53:28;;;;;;;374.30;165.07;;;-0.40;99.90;;;;;;5077072;28;20113;-53
2023/12/20 01:55:56;;;;;;;376.58;171.13;;;-0.50;99.90;;;;;;5076750;28;20036;-53
2023/12/20 01:58:23;;;;;;;372.33;166.77;;;-0.50;99.90;;;;;;5077131;28;20017;-53
2023/12/20 02:00:49;;;;;;;355.98;158.63;;;-0.50;99.90;;;;;;5076961;28;20029;-53
2023/12/20 02:03:16;;;;;;;352.65;161.02;;;-0.50;99.90;;;;;;5075989;28;20105;-53
2023/12/20 02:05:43;;;;;;;378.02;170.27;;;-0.60;99.90;;;;;;5076872;28;20042;-53
2023/12/20 02:08:09;;;;;;;389.20;171.27;;;-0.70;99.90;;;;;;5077224;28;20028;-53
2023/12/20 02:10:35;;;;;;;374.30;166.60;;;-0.70;99.90;;;;;;5076694;28;20032;-53
2023/12/20 02:13:00;;;;;;;369.92;167.35;;;-0.70;99.90;;;;;;5076705;28;20067;-53
2023/12/20 02:15:26;;;;;;;377.42;168.45;;;-0.70;99.90;;;;;;5076708;28;20024;-53
2023/12/20 02:17:53;;;;;;;361.52;159.27;;;-0.80;99.90;;;;;;5076449;28;20032;-53
2023/12/20 02:20:19;;;;;;;404.63;172.45;;;-0.80;99.90;;;;;;5076640;28;20481;-53
2023/12/20 02:22:45;;;;;;;433.75;177.70;;;-0.70;99.90;;;;;;5076697;28;20016;-53
2023/12/20 02:25:11;;;;;;;434.83;182.07;;;-0.80;99.90;;;;;;5076082;28;20040;-53
2023/12/20 02:27:37;;;;;;;428.67;176.73;;;-0.80;99.90;;;;;;5076495;28;20067;-53
2023/12/20 02:30:03;;;;;;;440.65;182.02;;;-0.80;99.90;;;;;;5076370;28;20032;-53
2023/12/20 02:32:29;;;;;;;409.63;170.60;;;-0.80;99.90;;;;;;5076215;28;20048;-53
2023/12/20 02:34:55;;;;;;;407.40;170.10;;;-0.80;99.90;;;;;;5076279;28;20024;-53
2023/12/20 02:37:21;;;;;;;411.92;174.35;;;-0.90;99.90;;;;;;5076079;28;20386;-53
2023/12/20 02:39:47;;;;;;;432.38;183.48;;;-1.00;99.90;;;;;;5076041;28;20031;-53
2023/12/20 02:42:13;;;;;;;425.17;178.10;;;-1.00;99.90;;;;;;5074484;28;20032;-53
2023/12/20 02:44:39;;;;;;;390.42;163.60;;;-1.10;99.90;;;;;;5075673;28;20035;-53
2023/12/20 02:47:05;;;;;;;374.02;164.20;;;-1.20;99.90;;;;;;5075691;28;20025;-53
2023/12/20 02:49:31;;;;;;;399.80;169.60;;;-1.20;99.90;;;;;;5076262;28;20040;-53
2023/12/20 02:51:56;;;;;;;332.05;144.52;;;-1.10;99.90;;;;;;5076004;28;20027;-53
2023/12/20 02:54:22;;;;;;;348.40;156.77;;;-1.10;99.90;;;;;;5075473;28;20086;-52
2023/12/20 02:56:48;;;;;;;337.10;148.60;;;-1.10;99.90;;;;;;5075780;28;20119;-53
2023/12/20 02:59:14;;;;;;;334.38;150.90;;;-1.20;99.90;;;;;;5075932;28;20104;-53
2023/12/20 03:01:46;;;;;;;306.27;141.73;;;-1.10;99.90;;;;;;5075714;28;20029;-53
2023/12/20 03:04:13;;;;;;;304.98;142.98;;;-1.00;99.90;;;;;;5075604;28;20029;-53
2023/12/20 03:06:39;;;;;;;329.92;146.32;;;-0.90;99.90;;;;;;5075789;28;20071;-53
2023/12/20 03:09:05;;;;;;;345.13;150.77;;;-0.80;99.90;;;;;;5075545;28;20033;-53
2023/12/20 03:11:31;;;;;;;336.77;151.32;;;-0.70;99.90;;;;;;5075659;28;20465;-53
2023/12/20 03:13:57;;;;;;;297.73;135.60;;;-0.70;99.90;;;;;;5075333;28;20020;-53
2023/12/20 03:16:23;;;;;;;266.38;119.68;;;-0.70;99.90;;;;;;5075390;28;20072;-53
2023/12/20 03:18:49;;;;;;;261.25;118.60;;;-0.90;99.90;;;;;;5075652;28;20380;-53
2023/12/20 03:21:15;;;;;;;245.15;112.28;;;-1.10;99.90;;;;;;5075651;28;20021;-53
2023/12/20 03:23:41;;;;;;;246.27;114.20;;;-1.10;99.90;;;;;;5075358;28;20021;-53
2023/12/20 03:26:08;;;;;;;267.25;122.00;;;-1.10;99.90;;;;;;5075368;28;20028;-53
2023/12/20 03:28:35;;;;;;;303.80;139.02;;;-1.30;99.90;;;;;;5075585;28;20056;-53
2023/12/20 03:31:02;;;;;;;303.13;137.77;;;-1.20;99.90;;;;;;5075313;28;20056;-53
2023/12/20 03:33:28;;;;;;;289.60;130.93;;;-1.30;99.90;;;;;;5075502;28;20082;-53
2023/12/20 03:35:54;;;;;;;272.73;127.60;;;-1.30;99.90;;;;;;5075335;28;20045;-53
2023/12/20 03:38:21;;;;;;;297.05;133.20;;;-1.30;99.90;;;;;;5075019;28;20043;-53
2023/12/20 03:40:47;;;;;;;296.42;135.45;;;-1.20;99.90;;;;;;5075259;28;20092;-53
2023/12/20 03:43:13;;;;;;;276.35;128.23;;;-1.20;99.90;;;;;;5075413;28;20083;-53
2023/12/20 03:45:39;;;;;;;291.83;131.55;;;-1.20;99.90;;;;;;5074907;28;20109;-53
2023/12/20 03:48:05;;;;;;;335.30;145.57;;;-1.30;99.90;;;;;;5075229;28;20161;-53
2023/12/20 03:50:31;;;;;;;323.63;143.85;;;-1.30;99.90;;;;;;5075294;28;20025;-53
2023/12/20 03:52:57;;;;;;;314.60;143.25;;;-1.20;99.90;;;;;;5075063;28;20500;-53
2023/12/20 03:55:23;;;;;;;312.73;141.02;;;-1.10;99.90;;;;;;5075104;28;20028;-53
2023/12/20 03:57:49;;;;;;;302.35;136.02;;;-1.20;99.90;;;;;;5075038;28;20486;-53
2023/12/20 04:00:15;;;;;;;304.75;135.07;;;-1.30;99.90;;;;;;5075088;28;20025;-53
2023/12/20 04:02:42;;;;;;;313.33;135.98;;;-1.30;99.90;;;;;;5075159;28;20032;-53
2023/12/20 04:05:09;;;;;;;289.60;132.52;;;-1.30;99.90;;;;;;5075086;28;20493;-53
2023/12/20 04:07:36;;;;;;;290.20;129.45;;;-1.30;99.90;;;;;;5074840;28;20485;-53
2023/12/20 04:10:03;;;;;;;284.60;125.82;;;-1.40;99.90;;;;;;5075153;28;20486;-53
2023/12/20 04:12:30;;;;;;;282.73;130.63;;;-1.40;99.90;;;;;;5075121;28;20021;-53
2023/12/20 04:14:56;;;;;;;283.80;128.40;;;-1.40;99.90;;;;;;5074568;28;20075;-53
2023/12/20 04:17:22;;;;;;;287.67;132.63;;;-1.40;99.90;;;;;;5075240;28;20020;-52
2023/12/20 04:19:49;;;;;;;256.70;117.63;;;-1.40;99.90;;;;;;5075011;28;20111;-53
2023/12/20 04:22:15;;;;;;;266.25;120.53;;;-1.40;99.90;;;;;;5074829;28;20296;-53
2023/12/20 04:24:44;;;;;;;280.67;127.15;;;-1.50;99.90;;;;;;5074738;28;20037;-53
2023/12/20 04:27:10;;;;;;;247.52;116.78;;;-1.60;99.90;;;;;;5077248;28;20024;-52
2023/12/20 04:29:36;;;;;;;255.20;116.40;;;-1.70;99.90;;;;;;5078535;28;20029;-53
2023/12/20 04:32:02;;;;;;;254.43;120.93;;;-1.70;99.90;;;;;;5078754;28;20506;-53
2023/12/20 04:34:28;;;;;;;280.77;135.13;;;-1.70;99.90;;;;;;5078549;28;20122;-53
2023/12/20 04:36:54;;;;;;;273.23;132.35;;;-1.60;99.90;;;;;;5078044;28;20043;-53
2023/12/20 04:39:20;;;;;;;275.70;129.10;;;-1.50;99.90;;;;;;5078610;28;20032;-53
2023/12/20 04:41:47;;;;;;;278.65;126.70;;;-1.50;99.90;;;;;;5078477;28;20584;-53
2023/12/20 04:44:13;;;;;;;239.07;109.95;;;-1.50;99.90;;;;;;5078132;28;20040;-53
2023/12/20 04:46:39;;;;;;;232.50;110.20;;;-1.50;99.90;;;;;;5078455;28;20036;-53
2023/12/20 04:49:05;;;;;;;237.02;110.03;;;-1.50;99.90;;;;;;5078130;28;20060;-53
2023/12/20 04:51:35;;;;;;;231.98;108.95;;;-1.50;99.90;;;;;;5077977;28;20383;-52
2023/12/20 04:54:02;;;;;;;237.13;112.85;;;-1.50;99.90;;;;;;5078232;28;20024;-53
2023/12/20 04:56:27;;;;;;;229.27;106.38;;;-1.50;99.90;;;;;;5078191;28;20025;-53
2023/12/20 04:58:53;;;;;;;227.07;106.53;;;-1.60;99.90;;;;;;5078071;28;20034;-53
2023/12/20 05:01:20;;;;;;;231.60;106.05;;;-1.60;99.90;;;;;;5078273;28;20046;-53
2023/12/20 05:03:46;;;;;;;216.25;100.70;;;-1.60;99.90;;;;;;5078109;28;20032;-53
2023/12/20 05:06:12;;;;;;;216.95;103.63;;;-1.60;99.90;;;;;;5077724;28;20033;-53
2023/12/20 05:08:38;;;;;;;215.48;100.15;;;-1.60;99.90;;;;;;5076716;28;20044;-53
2023/12/20 05:11:04;;;;;;;225.70;109.47;;;-1.70;99.90;;;;;;5078037;28;20028;-53
2023/12/20 05:13:30;;;;;;;219.73;104.03;;;-1.70;99.90;;;;;;5077660;28;20036;-53
2023/12/20 05:15:56;;;;;;;226.85;110.82;;;-1.70;99.90;;;;;;5078015;28;20086;-53
2023/12/20 05:18:22;;;;;;;212.77;99.85;;;-1.80;99.90;;;;;;5077882;28;20104;-53
2023/12/20 05:20:50;;;;;;;261.90;129.68;;;-1.70;99.90;;;;;;5077603;28;20028;-53
2023/12/20 05:23:17;;;;;;;262.00;118.72;;;-1.80;99.90;;;;;;5077789;28;20123;-53
2023/12/20 05:25:43;;;;;;;254.98;109.90;;;-1.80;99.90;;;;;;5077861;28;20036;-53
2023/12/20 05:28:09;;;;;;;235.95;106.80;;;-1.80;99.90;;;;;;5077738;28;20028;-53
2023/12/20 05:30:35;;;;;;;213.65;99.50;;;-1.90;99.90;;;;;;5077448;28;20531;-53
2023/12/20 05:33:01;;;;;;;201.60;94.60;;;-1.90;99.90;;;;;;5077517;28;20469;-53
2023/12/20 05:35:26;;;;;;;198.02;87.38;;;-1.80;99.90;;;;;;5077477;28;20040;-53
2023/12/20 05:37:52;;;;;;;197.50;93.82;;;-1.80;99.90;;;;;;5077153;28;20028;-53
2023/12/20 05:40:18;;;;;;;204.35;92.32;;;-1.60;99.90;;;;;;5077367;28;20104;-53
2023/12/20 05:42:44;;;;;;;211.52;96.50;;;-1.70;99.90;;;;;;5077436;28;20027;-53
2023/12/20 05:45:10;;;;;;;202.15;94.80;;;-1.70;99.90;;;;;;5076846;28;20038;-53
2023/12/20 05:47:36;;;;;;;220.57;101.57;;;-1.60;99.90;;;;;;5077218;28;20466;-53
2023/12/20 05:50:03;;;;;;;220.10;103.63;;;-1.60;99.90;;;;;;5077055;28;20253;-53
2023/12/20 05:52:29;;;;;;;234.40;105.07;;;-1.50;99.90;;;;;;5077039;28;20024;-53
2023/12/20 05:54:57;;;;;;;204.23;92.25;;;-1.60;99.90;;;;;;5076993;28;20078;-53
2023/12/20 05:57:23;;;;;;;219.00;98.60;;;-1.60;99.90;;;;;;5076934;28;20032;-53
2023/12/20 05:59:49;;;;;;;222.15;102.25;;;-1.70;99.90;;;;;;5076879;28;20017;-53
2023/12/20 06:02:15;;;;;;;231.93;101.07;;;-1.60;99.90;;;;;;5076986;28;20074;-53
2023/12/20 06:04:45;;;;;;;261.83;109.40;;;-1.60;99.90;;;;;;5076742;28;20050;-53
2023/12/20 06:07:15;;;;;;;384.52;137.63;;;-1.70;99.90;;;;;;5076666;28;20105;-53
2023/12/20 06:09:41;;;;;;;308.33;123.55;;;-1.60;99.90;;;;;;5076868;28;20032;-53
2023/12/20 06:12:08;;;;;;;222.73;96.40;;;-1.60;99.90;;;;;;5077112;28;20107;-53
2023/12/20 06:14:34;;;;;;;202.55;91.05;;;-1.60;99.90;;;;;;5076373;28;20036;-53
2023/12/20 06:17:01;;;;;;;185.95;81.43;;;-1.60;99.90;;;;;;5074997;28;20021;-53
2023/12/20 06:19:27;;;;;;;224.38;99.05;;;-1.70;99.90;;;;;;5075731;28;20091;-53
2023/12/20 06:21:53;;;;;;;252.77;105.60;;;-1.70;99.90;;;;;;5076177;28;20088;-53
2023/12/20 06:24:19;;;;;;;252.27;106.38;;;-1.70;99.90;;;;;;5075513;28;20501;-53
2023/12/20 06:26:45;;;;;;;233.82;101.82;;;-1.70;99.90;;;;;;5076119;28;20043;-53
2023/12/20 06:29:12;;;;;;;250.35;112.47;;;-1.60;99.90;;;;;;5083915;28;20078;-53
2023/12/20 06:31:38;;;;;;;242.85;109.53;;;-1.60;99.90;;;;;;5096693;28;20028;-53
2023/12/20 06:34:03;;;;;;;241.75;105.88;;;-1.50;99.90;;;;;;5096465;28;20043;-53
2023/12/20 06:36:29;;;;;;;256.05;118.55;;;-1.50;99.90;;;;;;5096156;28;20377;-53
2023/12/20 06:38:55;;;;;;;192.15;93.95;;;-1.40;99.90;;;;;;5096526;28;20035;-53
2023/12/20 06:41:21;;;;;;;194.43;92.47;;;-1.40;99.90;;;;;;5096256;28;20024;-53
2023/12/20 06:43:47;;;;;;;206.20;97.95;;;-1.30;99.90;;;;;;5092552;28;20277;-53
2023/12/20 06:46:13;;;;;;;213.40;95.28;;;-1.40;99.90;;;;;;5066842;28;20461;-53
2023/12/20 06:48:40;;;;;;;207.07;97.63;;;-1.50;99.90;;;;;;5074853;27;20068;-53
2023/12/20 06:51:06;;;;;;;194.55;95.07;;;-1.50;99.90;;;;;;5075724;28;20059;-53
2023/12/20 06:53:32;;;;;;;222.15;105.05;;;-1.50;99.90;;;;;;5075890;28;20115;-53
2023/12/20 06:55:58;;;;;;;206.73;97.25;;;-1.50;99.90;;;;;;5075720;28;20059;-53
2023/12/20 06:58:24;;;;;;;199.60;98.70;;;-1.50;99.90;;;;;;5075494;28;20029;-53
2023/12/20 07:00:51;;;;;;;202.52;97.15;;;-1.50;99.90;;;;;;5072287;28;20055;-53
2023/12/20 07:03:17;;;;;;;220.55;102.93;;;-1.40;99.90;;;;;;5090579;28;20059;-53
2023/12/20 07:05:43;;;;;;;203.43;98.40;;;-1.40;99.90;;;;;;5087586;28;20055;-53
2023/12/20 07:08:10;;;;;;;230.13;106.32;;;-1.40;99.90;;;;;;5075496;28;20028;-53
2023/12/20 07:10:36;;;;;;;265.25;124.55;;;-1.30;99.90;;;;;;5075589;28;20112;-53
2023/12/20 07:13:03;;;;;;;301.83;140.25;;;-1.10;99.90;;;;;;5074225;28;20067;-53
2023/12/20 07:15:29;;;;;;;261.63;112.10;;;-1.00;99.90;;;;;;5073447;28;20033;-53
2023/12/20 07:17:55;;;;;;;286.35;117.07;;;-0.90;99.90;;;;;;5073805;28;20021;-53
2023/12/20 07:20:21;;;;;;;272.00;119.50;;;-0.80;99.90;;;;;;5073434;28;20028;-53
2023/12/20 07:22:47;;;;;;;259.90;116.90;;;-0.50;99.90;;;;;;5074046;28;20020;-53
2023/12/20 07:25:13;;;;;;;337.60;120.05;;;-0.10;99.90;;;;;;5073714;28;20434;-53
2023/12/20 07:27:39;;;;;;;241.85;114.50;;;0.80;99.90;;;;;;5074369;28;20028;-53
2023/12/20 07:30:05;;;;;;;844.53;165.98;;;2.20;99.90;;;;;;5075146;28;20025;-53
2023/12/20 07:32:32;;;;;;;323.73;132.45;;;3.00;99.90;;;;;;5075218;28;20058;-53
2023/12/20 07:34:58;;;;;;;277.55;124.80;;;3.70;99.90;;;;;;5073579;28;20036;-53
2023/12/20 07:37:23;;;;;;;254.95;116.53;;;4.30;99.90;;;;;;5075654;28;20115;-53
2023/12/20 07:39:49;;;;;;;246.02;111.75;;;4.80;98.80;;;;;;5075541;28;20070;-53
2023/12/20 07:42:15;;;;;;;233.43;108.70;;;5.70;96.60;;;;;;5074490;28;20017;-53
2023/12/20 07:44:41;;;;;;;239.07;114.47;;;6.70;91.20;;;;;;5078093;28;20462;-53
2023/12/20 07:47:07;;;;;;;254.63;118.32;;;6.90;87.70;;;;;;5075267;28;20077;-53
2023/12/20 07:49:33;;;;;;;269.77;129.05;;;7.10;84.40;;;;;;5074335;28;20086;-53
2023/12/20 07:51:59;;;;;;;277.27;125.63;;;7.00;83.70;;;;;;5075371;28;20490;-53
2023/12/20 07:54:25;;;;;;;239.75;116.97;;;7.50;79.20;;;;;;5075168;28;20028;-53
2023/12/20 07:56:51;;;;;;;269.50;123.22;;;8.20;77.30;;;;;;5075214;28;20025;-54
2023/12/20 07:59:17;;;;;;;263.20;124.03;;;8.80;71.00;;;;;;5076566;28;20732;-54
2023/12/20 08:01:43;;;;;;;262.40;131.77;;;8.50;72.80;;;;;;5097130;28;20069;-54
2023/12/20 08:04:09;;;;;;;299.05;148.60;;;8.60;71.60;;;;;;5098011;28;20028;-54
2023/12/20 08:06:35;;;;;;;300.38;147.68;;;9.10;70.00;;;;;;5079218;28;20025;-54
2023/12/20 08:09:00;;;;;;;307.75;154.43;;;9.20;71.00;;;;;;5079028;28;20028;-54
2023/12/20 08:11:26;;;;;;;320.25;161.82;;;9.80;67.30;;;;;;5078777;28;20662;-54
2023/12/20 08:13:52;;;;;;;339.52;173.35;;;9.40;67.40;;;;;;5078148;28;20041;-54
2023/12/20 08:16:18;;;;;;;320.45;166.32;;;9.30;66.50;;;;;;5089169;28;20062;-54
2023/12/20 08:18:44;;;;;;;337.88;171.60;;;10.10;67.30;;;;;;5098591;28;20108;-54
2023/12/20 08:21:11;;;;;;;332.23;177.05;;;10.00;65.40;;;;;;5099131;28;20051;-54
2023/12/20 08:23:37;;;;;;;369.45;179.43;;;9.90;65.60;;;;;;5099426;28;20401;-54
2023/12/20 08:26:07;;;;;;;459.67;219.35;;;10.30;65.00;;;;;;5099148;28;20038;-54
2023/12/20 08:28:34;;;;;;;432.48;210.27;;;10.70;61.50;;;;;;5099357;28;20028;-54
2023/12/20 08:31:00;;;;;;;428.05;211.57;;;11.20;61.30;;;;;;5099400;28;20028;-54
2023/12/20 08:33:26;;;;;;;388.40;202.15;;;11.60;58.90;;;;;;5098961;28;20044;-54
2023/12/20 08:35:52;;;;;;;363.08;190.65;;;11.80;58.90;;;;;;5098736;28;20488;-54
2023/12/20 08:38:18;;;;;;;347.85;190.13;;;11.70;57.40;;;;;;5098768;28;20028;-54
2023/12/20 08:40:44;;;;;;;378.50;206.10;;;11.50;59.00;;;;;;5080029;28;20081;-54
2023/12/20 08:43:10;;;;;;;378.15;207.07;;;11.90;57.60;;;;;;5099013;28;20024;-54
2023/12/20 08:45:36;;;;;;;402.15;221.98;;;12.30;58.70;;;;;;5098822;28;20039;-54
2023/12/20 08:48:03;;;;;;;390.38;217.57;;;12.60;56.40;;;;;;5098779;28;20474;-54
2023/12/20 08:50:29;;;;;;;383.30;213.55;;;14.00;54.40;;;;;;5098684;28;20032;-54
2023/12/20 08:52:55;;;;;;;363.15;206.88;;;14.00;52.20;;;;;;5081272;28;20551;-54
2023/12/20 08:55:21;;;;;;;355.90;210.52;;;14.00;51.90;;;;;;5087129;28;20044;-54
2023/12/20 08:57:47;;;;;;;353.05;201.32;;;12.80;51.30;;;;;;5096367;28;20031;-54
2023/12/20 09:00:13;;;;;;;292.33;165.63;;;13.00;52.00;;;;;;5095518;28;20095;-54
2023/12/20 09:02:39;;;;;;;253.57;148.63;;;13.40;53.00;;;;;;5096044;28;20465;-54
2023/12/20 09:05:05;;;;;;;264.17;148.98;;;13.90;51.60;;;;;;5097377;28;20035;-54
2023/12/20 09:07:31;;;;;;;249.45;147.15;;;13.60;52.70;;;;;;5098049;28;20107;-54
2023/12/20 09:09:58;;;;;;;289.05;162.80;;;14.30;50.80;;;;;;5096506;28;20107;-54
2023/12/20 09:12:25;;;;;;;215.60;128.18;;;14.30;51.70;;;;;;5096918;28;20031;-54
2023/12/20 09:14:51;;;;;;;224.02;122.95;;;14.90;50.10;;;;;;5097643;28;20539;-54
2023/12/20 09:17:18;;;;;;;227.63;122.68;;;15.60;47.70;;;;;;5078895;28;20086;-54
2023/12/20 09:19:45;;;;;;;213.25;118.40;;;15.60;44.70;;;;;;5079801;28;20100;-54
2023/12/20 09:22:11;;;;;;;195.40;107.43;;;15.00;46.30;;;;;;5077398;28;20082;-54
2023/12/20 09:24:38;;;;;;;177.77;102.20;;;15.10;46.60;;;;;;5076661;28;20078;-54
2023/12/20 09:27:05;;;;;;;154.77;89.40;;;14.90;46.70;;;;;;5076512;28;20064;-54
2023/12/20 09:29:31;;;;;;;186.25;93.97;;;15.10;45.10;;;;;;5084668;28;20070;-54
2023/12/20 09:31:57;;;;;;;169.63;97.15;;;16.40;43.70;;;;;;5083274;28;20037;-55
2023/12/20 09:34:24;;;;;;;173.38;95.32;;;16.70;43.50;;;;;;5075934;28;20062;-55
2023/12/20 09:36:50;;;;;;;161.35;94.68;;;16.40;43.40;;;;;;5076759;28;20039;-54
2023/12/20 09:39:20;;;;;;;181.02;102.57;;;16.10;43.50;;;;;;5076841;28;20025;-54
2023/12/20 09:41:58;;;;;;;204.68;109.05;;;16.10;44.60;;;;;;5075436;28;20532;-54
2023/12/20 09:44:24;;;;;;;195.43;109.13;;;16.30;43.30;;;;;;5076816;28;20032;-54
2023/12/20 09:46:51;;;;;;;191.55;111.30;;;15.70;44.80;;;;;;5076778;28;20134;-54
2023/12/20 09:49:18;;;;;;;176.95;100.40;;;15.90;45.40;;;;;;5076954;28;20056;-55
2023/12/20 09:51:46;;;;;;;152.55;95.78;;;16.00;44.90;;;;;;5077238;28;20068;-55
2023/12/20 09:54:17;;;;;;;175.75;100.38;;;15.40;46.50;;;;;;5077334;28;20462;-54
2023/12/20 09:56:43;;;;;;;165.63;101.60;;;15.60;47.10;;;;;;5076695;28;20033;-55
2023/12/20 09:59:09;;;;;;;178.50;104.88;;;16.30;45.50;;;;;;5077159;28;20029;-55
2023/12/20 10:01:37;;;;;;;194.80;108.05;;;15.70;47.30;;;;;;5076489;28;20066;-54
2023/12/20 10:04:09;;;;;;;203.15;111.13;;;15.60;47.00;;;;;;5076210;28;20059;-54
2023/12/20 10:06:42;;;;;;;204.68;113.45;;;15.30;48.00;;;;;;5076717;28;20035;-55
2023/12/20 10:09:12;;;;;;;186.68;111.63;;;14.90;50.20;;;;;;5074833;28;20033;-54
2023/12/20 10:11:39;;;;;;;186.68;111.88;;;15.70;47.60;;;;;;5076334;28;20082;-54
2023/12/20 10:14:10;;;;;;;191.63;112.18;;;15.90;47.40;;;;;;5076335;28;20047;-54
2023/12/20 10:16:36;;;;;;;186.75;110.45;;;16.60;46.30;;;;;;5076147;28;20501;-54
2023/12/20 10:19:02;;;;;;;176.27;107.70;;;17.30;44.80;;;;;;5073968;28;20150;-55
2023/12/20 10:21:28;;;;;;;191.10;111.07;;;17.30;44.20;;;;;;5076449;28;20024;-54
2023/12/20 10:23:57;;;;;;;189.70;109.57;;;17.10;45.00;;;;;;5074845;28;20024;-55
2023/12/20 10:26:25;;;;;;;189.35;111.40;;;17.60;43.70;;;;;;5075907;28;20533;-55
2023/12/20 10:28:53;;;;;;;168.88;103.28;;;17.70;44.00;;;;;;5076114;27;20119;-54
2023/12/20 10:31:29;;;;;;;182.88;106.47;;;18.00;41.90;;;;;;5075742;28;20032;-55
2023/12/20 10:33:59;;;;;;;159.90;100.40;;;17.60;44.10;;;;;;5078217;28;20020;-55
2023/12/20 10:36:26;;;;;;;178.70;99.60;;;17.90;41.90;;;;;;5096276;28;20473;-55
2023/12/20 10:38:55;;;;;;;162.52;83.38;;;17.40;42.40;;;;;;5096178;28;20057;-55
2023/12/20 10:41:27;;;;;;;148.13;76.57;;;17.60;41.60;;;;;;5077634;28;20100;-55
2023/12/20 10:44:01;;;;;;;110.32;61.88;;;17.80;42.40;;;;;;5076355;28;20036;-55
2023/12/20 10:46:29;;;;;;;111.43;59.55;;;18.20;38.70;;;;;;5076270;28;20091;-55
2023/12/20 10:48:56;;;;;;;102.93;54.88;;;18.00;39.80;;;;;;5076130;28;20058;-55
2023/12/20 10:51:25;;;;;;;86.63;51.13;;;18.60;38.00;;;;;;5074730;28;20040;-55
2023/12/20 10:53:52;;;;;;;90.43;53.33;;;19.50;36.20;;;;;;5076047;28;20684;-55
2023/12/20 10:56:19;;;;;;;89.72;52.70;;;19.90;34.10;;;;;;5077503;28;20393;-55
2023/12/20 10:58:49;;;;;;;101.13;52.95;;;20.20;34.00;;;;;;5076163;28;20085;-55
2023/12/20 11:01:20;;;;;;;110.43;58.88;;;19.70;33.50;;;;;;5075416;28;20134;-55
2023/12/20 11:03:53;;;;;;;107.57;57.67;;;19.40;34.20;;;;;;5076078;28;20029;-55
2023/12/20 11:06:56;;;;;;;115.60;58.25;;;20.00;34.00;;;;;;5074913;28;20051;-55
2023/12/20 11:09:27;;;;;;;89.05;54.58;;;19.20;34.40;;;;;;5075566;28;20100;-55
2023/12/20 11:12:19;;;;;;;102.15;56.08;;;19.70;34.40;;;;;;5075859;28;20058;-55
2023/12/20 11:14:47;;;;;;;102.85;54.75;;;20.10;32.70;;;;;;5074589;28;20466;-55
2023/12/20 11:17:17;;;;;;;80.78;47.88;;;20.20;32.10;;;;;;5075766;28;20378;-55
2023/12/20 11:19:52;;;;;;;80.97;45.45;;;20.50;29.90;;;;;;5075881;28;20028;-55
2023/12/20 11:22:24;;;;;;;67.00;40.30;;;19.90;31.00;;;;;;5076109;28;20020;-55
2023/12/20 11:24:51;;;;;;;75.28;40.30;;;20.60;29.20;;;;;;5075621;28;20047;-55
2023/12/20 11:27:21;;;;;;;64.35;35.78;;;20.40;29.60;;;;;;5075710;28;20058;-55
2023/12/20 11:29:56;;;;;;;58.07;34.13;;;20.00;30.40;;;;;;5075748;28;20031;-55
2023/12/20 11:32:27;;;;;;;48.30;28.73;;;20.10;30.00;;;;;;5085397;28;20039;-55
2023/12/20 11:34:58;;;;;;;55.70;30.63;;;20.00;30.00;;;;;;5095133;28;20036;-55
2023/12/20 11:37:31;;;;;;;;;;;20.20;29.90;;;;;;5096159;28;20040;-55
2023/12/20 11:40:09;;;;;;;54.33;32.67;;;20.10;30.00;;;;;;5095779;28;19908;-55
2023/12/20 11:42:42;;;;;;;52.05;33.42;;;19.90;29.90;;;;;;5095769;28;20026;-55
2023/12/20 11:45:10;;;;;;;59.25;35.80;;;19.90;29.70;;;;;;5095929;28;20028;-55
2023/12/20 11:47:36;;;;;;;62.42;35.38;;;19.50;30.70;;;;;;5095577;28;20047;-55
2023/12/20 11:50:03;;;;;;;83.38;37.33;;;18.60;31.50;;;;;;5093885;28;20040;-55
2023/12/20 11:52:30;;;;;;;69.03;38.72;;;18.40;32.90;;;;;;5094326;28;20397;-55
2023/12/20 11:54:57;;;;;;;73.75;40.00;;;17.70;33.20;;;;;;5083583;28;20036;-55
2023/12/20 11:57:23;;;;;;;105.10;46.90;;;16.80;35.70;;;;;;5074691;28;20020;-55
2023/12/20 11:59:49;;;;;;;100.63;52.00;;;16.70;37.30;;;;;;5074477;28;20025;-54
2023/12/20 12:02:15;;;;;;;104.70;55.60;;;16.10;38.00;;;;;;5074918;28;20021;-55
2023/12/20 12:04:43;;;;;;;127.60;59.83;;;15.50;40.20;;;;;;5074653;28;20095;-55
2023/12/20 12:07:09;;;;;;;90.35;51.47;;;15.80;40.90;;;;;;5075037;28;20029;-54
2023/12/20 12:09:35;;;;;;;83.07;46.55;;;16.60;39.10;;;;;;5074827;28;20378;-55
2023/12/20 12:12:02;;;;;;;89.15;46.33;;;17.20;37.00;;;;;;5073588;28;20120;-55